SAAR/ROS METAR and TAF weather

Enter ICAO airport designator
Station Type Date Time Source
SAAR METAR 2019/10/15 18:41 UTC NOAA

SAAR 151841Z 09013KT 4000 DZ BR FEW007 SCT012 OVC040 11/10 Q1024


Station Type Date Time Source
SAAR Decoded METAR 2019/10/15 18:41 UTC NOAA

Rosario Aerodrome, Argentina (SAAR) 32-55S 060-47W 25M
Oct 15, 2019 - 02:41 PM EDT / 2019.10.15 1841 UTC
Wind: from the E (090 degrees) at 15 MPH (13 KT):0
Visibility: 2 mile(s):0
Sky conditions: overcast
Weather: drizzle; mist
Temperature: 51 F (11 C)
Dew Point: 50 F (10 C)
Relative Humidity: 93%
Pressure (altimeter): 30.24 in. Hg (1024 hPa)
ob: SAAR 151841Z 09013KT 4000 DZ BR FEW007 SCT012 OVC040 11/10 Q1024
cycle: 18

Station Type Date Time Source
SAAR TAF 2019/10/15 18:12 UTC NOAA

TAF TAF SAAR 151700Z 1518/1618 12015KT 6000 RA BKN020 BKN040 TX19/1618Z TN10/1610Z
TEMPO 1519/1523 3000 RADZ SCT015 BKN020 BKN040
BECMG 1523/1601 16005KT 8000 -RA BKN010 BKN030
BECMG 1606/1608 3000 BR SCT007 OVC010
BECMG 1612/1614 14005KT 9999 OVC010

Example: see airport list